createdAt,value
2022-12-03T00:00:12.191Z,-2.71
2022-12-03T00:02:57.903Z,-2.76
2022-12-03T00:05:48.863Z,-2.74
2022-12-03T00:08:34.216Z,-2.73
2022-12-03T00:11:18.957Z,-2.70
2022-12-03T00:14:03.622Z,-2.71
2022-12-03T00:16:48.344Z,-2.70
2022-12-03T00:19:33.492Z,-2.68
2022-12-03T00:22:18.013Z,-2.68
2022-12-03T00:25:03.330Z,-2.67
2022-12-03T00:27:47.910Z,-2.63
2022-12-03T00:30:32.840Z,-2.64
2022-12-03T00:33:19.809Z,-2.63
2022-12-03T00:36:04.969Z,-2.62
2022-12-03T00:38:49.825Z,-2.63
2022-12-03T00:41:34.710Z,-2.62
2022-12-03T00:44:19.609Z,-2.59
2022-12-03T00:47:04.329Z,-2.60
2022-12-03T00:49:49.264Z,-2.59
2022-12-03T00:52:34.025Z,-2.60
2022-12-03T00:55:18.755Z,-2.62
2022-12-03T00:58:03.666Z,-2.59
2022-12-03T01:00:48.546Z,-2.58
2022-12-03T01:03:33.601Z,-2.56
2022-12-03T01:06:18.390Z,-2.54
2022-12-03T01:09:03.386Z,-2.57
2022-12-03T01:11:48.315Z,-2.54
2022-12-03T01:14:32.943Z,-2.53
2022-12-03T01:17:17.788Z,-2.54
2022-12-03T01:20:06.289Z,-2.54
2022-12-03T01:22:51.258Z,-2.57
2022-12-03T01:25:36.116Z,-2.55
2022-12-03T01:28:21.060Z,-2.53
2022-12-03T01:31:24.209Z,-2.51
2022-12-03T01:34:09.113Z,-2.53
2022-12-03T01:36:54.366Z,-2.52
2022-12-03T01:39:39.086Z,-2.53
2022-12-03T01:42:34.425Z,-2.50
2022-12-03T01:45:23.635Z,-2.51
2022-12-03T01:48:13.004Z,-2.52
2022-12-03T01:50:57.690Z,-2.49
2022-12-03T01:53:43.884Z,-2.50
2022-12-03T01:56:28.469Z,-2.51
2022-12-03T01:59:15.870Z,-2.53
2022-12-03T02:02:18.752Z,-2.53
2022-12-03T02:05:32.275Z,-2.52
2022-12-03T02:08:36.859Z,-2.53
2022-12-03T02:11:27.844Z,-2.53
2022-12-03T02:14:19.641Z,-2.55
2022-12-03T02:17:04.394Z,-2.53
2022-12-03T02:19:49.566Z,-2.53
2022-12-03T02:22:34.447Z,-2.50
2022-12-03T02:25:23.980Z,-2.50
2022-12-03T02:28:09.401Z,-2.49
2022-12-03T02:30:53.830Z,-2.49
2022-12-03T02:33:38.679Z,-2.49
2022-12-03T02:36:23.882Z,-2.45
2022-12-03T02:39:08.677Z,-2.44
2022-12-03T02:42:12.050Z,-2.43
2022-12-03T02:45:05.103Z,-2.44
2022-12-03T02:48:33.761Z,-2.44
2022-12-03T02:51:18.499Z,-2.45
2022-12-03T02:54:03.690Z,-2.44
2022-12-03T02:56:49.017Z,-2.43
2022-12-03T02:59:33.760Z,-2.41
2022-12-03T03:02:19.107Z,-2.41
2022-12-03T03:05:06.567Z,-2.39
2022-12-03T03:07:51.298Z,-2.37
2022-12-03T03:10:38.388Z,-2.35
2022-12-03T03:13:23.369Z,-2.34
2022-12-03T03:16:08.636Z,-2.36
2022-12-03T03:18:53.526Z,-2.35
2022-12-03T03:21:38.415Z,-2.39
2022-12-03T03:24:23.886Z,-2.37
2022-12-03T03:27:08.910Z,-2.38
2022-12-03T03:29:54.154Z,-2.39
2022-12-03T03:32:40.694Z,-2.36
2022-12-03T03:35:25.843Z,-2.37
2022-12-03T03:38:11.078Z,-2.35
2022-12-03T03:40:57.395Z,-2.35
2022-12-03T03:43:43.690Z,-2.34
2022-12-03T03:46:29.297Z,-2.34
2022-12-03T03:49:14.710Z,-2.34
2022-12-03T03:51:59.666Z,-2.35
2022-12-03T03:54:45.035Z,-2.36
2022-12-03T03:57:30.045Z,-2.34
2022-12-03T04:00:16.174Z,-2.36
2022-12-03T04:03:00.829Z,-2.34
2022-12-03T04:05:46.383Z,-2.33
2022-12-03T04:08:31.135Z,-2.35
2022-12-03T04:11:34.691Z,-2.34
2022-12-03T04:14:19.543Z,-2.32
2022-12-03T04:17:04.033Z,-2.33
2022-12-03T04:19:48.942Z,-2.33
2022-12-03T04:22:39.715Z,-2.35
2022-12-03T04:25:43.001Z,-2.34
2022-12-03T04:28:46.296Z,-2.33
2022-12-03T04:31:49.690Z,-2.35
2022-12-03T04:34:53.388Z,-2.36
2022-12-03T04:37:38.660Z,-2.38
2022-12-03T04:40:42.244Z,-2.37
2022-12-03T04:43:27.888Z,-2.37
2022-12-03T04:46:12.791Z,-2.36
2022-12-03T04:48:57.769Z,-2.38
2022-12-03T04:51:42.591Z,-2.36
2022-12-03T04:54:28.134Z,-2.37
2022-12-03T04:57:13.283Z,-2.38
2022-12-03T04:59:58.061Z,-2.34
2022-12-03T05:02:42.846Z,-2.36
2022-12-03T05:05:27.865Z,-2.39
2022-12-03T05:08:12.776Z,-2.38
2022-12-03T05:10:57.656Z,-2.38
2022-12-03T05:13:43.184Z,-2.34
2022-12-03T05:16:28.341Z,-2.33
2022-12-03T05:19:12.930Z,-2.32
2022-12-03T05:21:57.518Z,-2.32
2022-12-03T05:24:42.198Z,-2.32
2022-12-03T05:27:27.142Z,-2.31
2022-12-03T05:30:12.535Z,-2.32
2022-12-03T05:32:57.247Z,-2.32
2022-12-03T05:35:42.174Z,-2.28
2022-12-03T05:38:26.816Z,-2.30
2022-12-03T05:41:30.141Z,-2.29
2022-12-03T05:44:20.312Z,-2.31
2022-12-03T05:47:05.829Z,-2.33
2022-12-03T05:49:50.518Z,-2.33
2022-12-03T05:52:35.268Z,-2.33
2022-12-03T05:55:20.252Z,-2.28
2022-12-03T05:58:05.521Z,-2.26
2022-12-03T06:00:50.090Z,-2.24
2022-12-03T06:03:35.159Z,-2.26
2022-12-03T06:06:19.873Z,-2.24
2022-12-03T06:09:04.642Z,-2.23
2022-12-03T06:11:53.384Z,-2.19
2022-12-03T06:14:38.009Z,-2.20
2022-12-03T06:17:22.926Z,-2.15
2022-12-03T06:20:10.235Z,-2.14
2022-12-03T06:22:54.909Z,-2.16
2022-12-03T06:25:40.052Z,-2.14
2022-12-03T06:28:24.954Z,-2.11
2022-12-03T06:31:09.704Z,-2.07
2022-12-03T06:33:54.593Z,-2.05
2022-12-03T06:36:39.623Z,-2.05
2022-12-03T06:39:24.546Z,-2.06
2022-12-03T06:42:09.466Z,-2.04
2022-12-03T06:44:54.467Z,-1.99
2022-12-03T06:47:39.649Z,-1.97
2022-12-03T06:50:24.443Z,-1.92
2022-12-03T06:53:08.956Z,-1.88
2022-12-03T06:55:53.869Z,-1.81
2022-12-03T06:58:38.430Z,-1.77
2022-12-03T07:01:23.932Z,-1.73
2022-12-03T07:04:09.260Z,-1.70
2022-12-03T07:06:53.782Z,-1.65
2022-12-03T07:09:38.696Z,-1.61
2022-12-03T07:12:23.228Z,-1.57
2022-12-03T07:15:08.885Z,-1.56
2022-12-03T07:17:53.688Z,-1.47
2022-12-03T07:20:38.661Z,-1.43
2022-12-03T07:23:23.345Z,-1.42
2022-12-03T07:26:23.421Z,-1.35
2022-12-03T07:29:08.042Z,-1.27
2022-12-03T07:31:53.153Z,-1.23
2022-12-03T07:34:37.793Z,-1.21
2022-12-03T07:37:23.438Z,-1.28
2022-12-03T07:40:09.238Z,-1.22
2022-12-03T07:42:53.705Z,-1.18
2022-12-03T07:45:38.447Z,-1.18
2022-12-03T07:48:23.365Z,-1.20
2022-12-03T07:51:11.572Z,-1.21
2022-12-03T07:53:59.391Z,-1.19
2022-12-03T07:56:44.262Z,-1.19
2022-12-03T07:59:29.458Z,-1.16
2022-12-03T08:02:19.635Z,-1.10
2022-12-03T08:05:06.470Z,-1.11
2022-12-03T08:07:50.902Z,-1.05
2022-12-03T08:10:35.635Z,-1.00
2022-12-03T08:13:20.546Z,-0.92
2022-12-03T08:16:17.095Z,-0.88
2022-12-03T08:19:02.045Z,-0.72
2022-12-03T08:21:46.613Z,-0.65
2022-12-03T08:24:31.248Z,-0.57
2022-12-03T08:27:17.524Z,-0.50
2022-12-03T08:30:04.226Z,-0.55
2022-12-03T08:32:50.406Z,-0.58
2022-12-03T08:35:35.092Z,-0.56
2022-12-03T08:38:24.183Z,-0.50
2022-12-03T08:41:14.820Z,-0.44
2022-12-03T08:43:59.674Z,-0.36
2022-12-03T08:46:44.922Z,-0.37
2022-12-03T08:49:29.438Z,-0.36
2022-12-03T08:52:32.924Z,-0.30
2022-12-03T08:55:38.577Z,-0.34
2022-12-03T08:58:32.083Z,-0.34
2022-12-03T09:01:28.059Z,-0.26
2022-12-03T09:04:44.557Z,-0.16
2022-12-03T09:07:29.485Z,-0.17
2022-12-03T09:10:14.750Z,-0.16
2022-12-03T09:12:59.279Z,-0.16
2022-12-03T09:15:44.123Z,-0.13
2022-12-03T09:18:28.648Z,-0.11
2022-12-03T09:21:13.770Z,-0.08
2022-12-03T09:23:58.907Z,-0.02
2022-12-03T09:26:43.726Z,0.00
2022-12-03T09:29:28.461Z,0.04
2022-12-03T09:32:18.082Z,0.02
2022-12-03T09:35:04.244Z,0.03
2022-12-03T09:37:48.940Z,-0.03
2022-12-03T09:40:34.105Z,-0.01
2022-12-03T09:43:19.420Z,-0.02
2022-12-03T09:46:04.906Z,0.04
2022-12-03T09:48:49.569Z,0.06
2022-12-03T09:51:36.035Z,0.10
2022-12-03T09:54:23.824Z,0.15
2022-12-03T09:57:11.620Z,0.22
2022-12-03T09:59:57.470Z,0.29
2022-12-03T10:02:46.120Z,0.18
2022-12-03T10:05:31.527Z,0.24
2022-12-03T10:08:22.002Z,0.22
2022-12-03T10:11:06.759Z,0.22
2022-12-03T10:13:53.179Z,0.22
2022-12-03T10:16:39.668Z,0.21
2022-12-03T10:19:28.768Z,0.18
2022-12-03T10:22:13.376Z,0.21
2022-12-03T10:25:08.352Z,0.22
2022-12-03T10:27:59.814Z,0.17
2022-12-03T10:30:54.783Z,0.08
2022-12-03T10:33:46.690Z,0.11
2022-12-03T10:36:31.776Z,0.10
2022-12-03T10:39:16.749Z,0.17
2022-12-03T10:42:22.481Z,0.10
2022-12-03T10:45:17.473Z,0.06
2022-12-03T10:48:15.717Z,0.12
2022-12-03T10:51:06.644Z,0.11
2022-12-03T10:53:51.510Z,0.17
2022-12-03T10:56:36.333Z,0.21
2022-12-03T10:59:27.902Z,0.26
2022-12-03T11:02:22.293Z,0.27
2022-12-03T11:05:12.510Z,0.25
2022-12-03T11:07:57.356Z,0.25
2022-12-03T11:10:42.044Z,0.26
2022-12-03T11:13:46.352Z,0.27
2022-12-03T11:16:40.572Z,0.22
2022-12-03T11:19:42.538Z,0.14
2022-12-03T11:22:42.344Z,0.10
2022-12-03T11:25:27.218Z,0.12
2022-12-03T11:28:15.066Z,0.07
2022-12-03T11:31:03.051Z,0.02
2022-12-03T11:33:48.204Z,0.02
2022-12-03T11:37:00.474Z,0.03
2022-12-03T11:39:44.340Z,-0.02
2022-12-03T11:42:37.908Z,-0.04
2022-12-03T11:45:30.742Z,-0.14
2022-12-03T11:48:16.203Z,-0.22
2022-12-03T11:51:00.811Z,-0.25
2022-12-03T11:53:45.749Z,-0.27
2022-12-03T11:56:30.950Z,-0.32
2022-12-03T11:59:16.300Z,-0.29
2022-12-03T12:02:18.223Z,-0.27
2022-12-03T12:05:29.564Z,-0.29
2022-12-03T12:08:18.545Z,-0.32
2022-12-03T12:11:15.472Z,-0.30
2022-12-03T12:14:10.274Z,-0.32
2022-12-03T12:16:55.481Z,-0.38
2022-12-03T12:19:42.531Z,-0.45
2022-12-03T12:22:27.797Z,-0.47
2022-12-03T12:25:31.009Z,-0.48
2022-12-03T12:28:15.801Z,-0.47
2022-12-03T12:31:00.759Z,-0.48
2022-12-03T12:33:45.712Z,-0.49
2022-12-03T12:36:31.492Z,-0.45
2022-12-03T12:39:16.132Z,-0.47
2022-12-03T12:42:05.905Z,-0.46
2022-12-03T12:44:51.631Z,-0.45
2022-12-03T12:47:36.779Z,-0.41
2022-12-03T12:50:21.528Z,-0.40
2022-12-03T12:53:10.619Z,-0.39
2022-12-03T12:56:20.342Z,-0.49
2022-12-03T12:59:11.312Z,-0.55
2022-12-03T13:01:55.976Z,-0.62
2022-12-03T13:07:44.758Z,-0.67
2022-12-03T13:10:41.350Z,-0.67
2022-12-03T13:13:43.703Z,-0.75
2022-12-03T13:16:32.154Z,-0.82
2022-12-03T13:19:21.385Z,-0.85
2022-12-03T13:22:17.916Z,-0.93
2022-12-03T13:25:58.906Z,-0.96
2022-12-03T13:28:41.302Z,-1.01
2022-12-03T13:31:39.462Z,-0.99
2022-12-03T13:34:32.727Z,-0.97
2022-12-03T13:37:24.700Z,-0.96
2022-12-03T13:40:30.161Z,-0.96
2022-12-03T13:43:16.349Z,-0.96
2022-12-03T13:46:01.171Z,-0.98
2022-12-03T13:48:45.705Z,-1.02
2022-12-03T13:51:32.673Z,-1.03
2022-12-03T13:54:25.665Z,-1.04
2022-12-03T13:57:11.822Z,-1.06
2022-12-03T13:59:57.024Z,-1.09
2022-12-03T14:02:42.412Z,-1.09
2022-12-03T14:05:27.005Z,-1.10
2022-12-03T14:08:11.659Z,-1.10
2022-12-03T14:11:00.413Z,-1.10
2022-12-03T14:13:45.325Z,-1.06
2022-12-03T14:16:30.456Z,-1.08
2022-12-03T14:19:15.134Z,-1.10
2022-12-03T14:22:00.351Z,-1.13
2022-12-03T14:24:45.040Z,-1.12
2022-12-03T14:27:29.906Z,-1.11
2022-12-03T14:30:14.810Z,-1.13
2022-12-03T14:32:59.463Z,-1.13
2022-12-03T14:35:44.512Z,-1.14
2022-12-03T14:38:29.399Z,-1.12
2022-12-03T14:41:34.865Z,-1.10
2022-12-03T14:44:23.004Z,-1.09
2022-12-03T14:47:08.099Z,-1.07
2022-12-03T14:49:53.321Z,-1.06
2022-12-03T14:52:38.379Z,-1.11
2022-12-03T14:55:23.306Z,-1.09
2022-12-03T14:58:07.936Z,-1.09
2022-12-03T15:00:52.878Z,-1.08
2022-12-03T15:03:39.952Z,-1.07
2022-12-03T15:06:25.180Z,-1.09
2022-12-03T15:09:10.497Z,-1.09
2022-12-03T15:11:55.402Z,-1.07
2022-12-03T15:14:40.760Z,-1.10
2022-12-03T15:17:31.628Z,-1.08
2022-12-03T15:20:17.567Z,-1.07
2022-12-03T15:23:02.499Z,-1.05
2022-12-03T15:25:47.180Z,-1.06
2022-12-03T15:28:31.734Z,-1.06
2022-12-03T15:31:16.768Z,-1.06
2022-12-03T15:34:01.836Z,-1.06
2022-12-03T15:36:46.726Z,-1.07
2022-12-03T15:42:35.693Z,-1.11
2022-12-03T15:45:20.518Z,-1.09
2022-12-03T15:48:05.582Z,-1.08
2022-12-03T15:50:50.254Z,-1.09
2022-12-03T15:53:35.477Z,-1.07
2022-12-03T15:59:23.460Z,-1.07
2022-12-03T16:02:08.521Z,-1.05
2022-12-03T16:04:53.361Z,-1.08
2022-12-03T16:07:38.642Z,-1.06
2022-12-03T16:10:23.327Z,-1.07
2022-12-03T16:13:07.799Z,-1.06
2022-12-03T16:15:53.713Z,-1.05
2022-12-03T16:18:38.845Z,-1.05
2022-12-03T16:21:27.025Z,-1.08
2022-12-03T16:24:12.497Z,-1.05
2022-12-03T16:26:57.400Z,-1.03
2022-12-03T16:29:42.293Z,-1.01
2022-12-03T16:32:27.121Z,-1.00
2022-12-03T16:35:11.619Z,-0.99
2022-12-03T16:37:56.569Z,-0.97
2022-12-03T16:40:41.141Z,-0.97
2022-12-03T16:43:26.043Z,-0.98
2022-12-03T16:46:13.786Z,-0.96
2022-12-03T16:48:58.446Z,-1.01
2022-12-03T16:51:43.196Z,-1.00
2022-12-03T16:54:27.995Z,-1.02
2022-12-03T16:57:13.149Z,-1.00
2022-12-03T16:59:57.831Z,-0.99
2022-12-03T17:02:42.420Z,-1.00
2022-12-03T17:05:27.262Z,-0.96
2022-12-03T17:08:13.472Z,-0.96
2022-12-03T17:10:58.479Z,-0.97
2022-12-03T17:13:43.237Z,-0.94
2022-12-03T17:16:28.002Z,-0.94
2022-12-03T17:19:12.796Z,-0.95
2022-12-03T17:21:59.084Z,-0.95
2022-12-03T17:24:43.914Z,-0.96
2022-12-03T17:27:28.933Z,-0.94
2022-12-03T17:30:14.880Z,-0.92
2022-12-03T17:32:59.757Z,-0.97
2022-12-03T17:35:45.880Z,-0.94
2022-12-03T17:38:35.678Z,-0.95
2022-12-03T17:41:25.698Z,-0.91
2022-12-03T17:44:13.919Z,-0.91
2022-12-03T17:47:01.097Z,-0.93
2022-12-03T17:49:45.816Z,-0.93
2022-12-03T17:52:30.662Z,-0.94
2022-12-03T17:55:23.996Z,-0.93
2022-12-03T17:58:15.948Z,-0.93
2022-12-03T18:01:02.974Z,-0.93
2022-12-03T18:03:48.524Z,-0.93
2022-12-03T18:06:33.306Z,-0.98
2022-12-03T18:09:18.316Z,-0.99
2022-12-03T18:12:03.234Z,-1.05
2022-12-03T18:14:47.892Z,-1.06
2022-12-03T18:17:32.509Z,-1.11
2022-12-03T18:20:17.695Z,-1.13
2022-12-03T18:23:03.046Z,-1.17
2022-12-03T18:25:48.087Z,-1.15
2022-12-03T18:28:32.994Z,-1.16
2022-12-03T18:31:20.484Z,-1.18
2022-12-03T18:34:04.839Z,-1.19
2022-12-03T18:36:49.897Z,-1.23
2022-12-03T18:39:36.419Z,-1.25
2022-12-03T18:42:22.393Z,-1.26
2022-12-03T18:45:10.750Z,-1.26
2022-12-03T18:47:55.550Z,-1.27
2022-12-03T18:50:40.557Z,-1.27
2022-12-03T18:53:25.401Z,-1.25
2022-12-03T18:56:10.757Z,-1.23
2022-12-03T18:58:55.504Z,-1.24
2022-12-03T19:01:40.518Z,-1.23
2022-12-03T19:04:25.443Z,-1.24
2022-12-03T19:07:11.723Z,-1.23
2022-12-03T19:09:56.856Z,-1.23
2022-12-03T19:12:41.416Z,-1.23
2022-12-03T19:15:26.355Z,-1.26
2022-12-03T19:18:11.195Z,-1.28
2022-12-03T19:20:56.434Z,-1.30
2022-12-03T19:23:47.259Z,-1.32
2022-12-03T19:26:43.809Z,-1.32
2022-12-03T19:29:28.730Z,-1.30
2022-12-03T19:32:13.335Z,-1.29
2022-12-03T19:34:58.333Z,-1.34
2022-12-03T19:37:42.991Z,-1.36
2022-12-03T19:40:27.980Z,-1.35
2022-12-03T19:43:12.850Z,-1.35
2022-12-03T19:46:01.987Z,-1.37
2022-12-03T19:48:47.109Z,-1.38
2022-12-03T19:51:35.132Z,-1.40
2022-12-03T19:54:20.134Z,-1.41
2022-12-03T19:57:05.042Z,-1.45
2022-12-03T19:59:49.677Z,-1.46
2022-12-03T20:02:34.497Z,-1.49
2022-12-03T20:05:19.328Z,-1.47
2022-12-03T20:08:05.399Z,-1.46
2022-12-03T20:10:50.201Z,-1.47
2022-12-03T20:13:36.577Z,-1.45
2022-12-03T20:16:23.173Z,-1.45
2022-12-03T20:19:10.847Z,-1.46
2022-12-03T20:22:02.085Z,-1.45
2022-12-03T20:24:47.773Z,-1.46
2022-12-03T20:27:32.712Z,-1.47
2022-12-03T20:30:17.703Z,-1.46
2022-12-03T20:33:02.562Z,-1.44
2022-12-03T20:35:54.155Z,-1.47
2022-12-03T20:38:38.736Z,-1.45
2022-12-03T20:41:24.149Z,-1.45
2022-12-03T20:44:09.359Z,-1.44
2022-12-03T20:46:53.930Z,-1.43
2022-12-03T20:49:39.570Z,-1.42
2022-12-03T20:52:24.521Z,-1.41
2022-12-03T20:55:09.669Z,-1.45
2022-12-03T20:57:54.390Z,-1.46
2022-12-03T21:00:39.292Z,-1.46
2022-12-03T21:03:23.710Z,-1.48
2022-12-03T21:06:09.631Z,-1.47
2022-12-03T21:08:55.532Z,-1.47
2022-12-03T21:11:41.690Z,-1.48
2022-12-03T21:14:26.916Z,-1.47
2022-12-03T21:17:11.784Z,-1.46
2022-12-03T21:19:57.039Z,-1.46
2022-12-03T21:22:42.227Z,-1.51
2022-12-03T21:25:26.978Z,-1.46
2022-12-03T21:28:11.938Z,-1.46
2022-12-03T21:31:01.894Z,-1.46
2022-12-03T21:33:47.221Z,-1.47
2022-12-03T21:36:32.168Z,-1.48
2022-12-03T21:39:18.080Z,-1.53
2022-12-03T21:42:36.106Z,-1.50
2022-12-03T21:45:08.511Z,-1.48
2022-12-03T21:47:53.204Z,-1.46
2022-12-03T21:50:38.377Z,-1.45
2022-12-03T21:53:23.168Z,-1.44
2022-12-03T21:56:10.673Z,-1.46
2022-12-03T21:58:55.466Z,-1.45
2022-12-03T22:01:44.133Z,-1.45
2022-12-03T22:04:31.882Z,-1.45
2022-12-03T22:07:16.820Z,-1.44
2022-12-03T22:10:01.694Z,-1.47
2022-12-03T22:12:46.096Z,-1.45
2022-12-03T22:15:31.091Z,-1.41
2022-12-03T22:18:16.039Z,-1.40
2022-12-03T22:21:09.064Z,-1.41
2022-12-03T22:23:55.345Z,-1.40
2022-12-03T22:26:40.167Z,-1.45
2022-12-03T22:29:25.386Z,-1.42
2022-12-03T22:32:10.197Z,-1.43
2022-12-03T22:34:55.320Z,-1.41
2022-12-03T22:37:40.068Z,-1.44
2022-12-03T22:40:25.207Z,-1.45
2022-12-03T22:43:10.053Z,-1.43
2022-12-03T22:45:55.259Z,-1.43
2022-12-03T22:48:41.994Z,-1.41
2022-12-03T22:51:27.040Z,-1.42
2022-12-03T22:54:11.866Z,-1.42
2022-12-03T22:56:56.953Z,-1.42
2022-12-03T22:59:41.810Z,-1.42
2022-12-03T23:02:26.838Z,-1.40
2022-12-03T23:05:11.279Z,-1.39
2022-12-03T23:07:56.235Z,-1.40
2022-12-03T23:10:44.228Z,-1.40
2022-12-03T23:13:28.805Z,-1.42
2022-12-03T23:16:17.534Z,-1.41
2022-12-03T23:19:03.418Z,-1.42
2022-12-03T23:21:48.204Z,-1.42
2022-12-03T23:24:33.152Z,-1.43
2022-12-03T23:27:17.911Z,-1.44
2022-12-03T23:30:03.181Z,-1.43
2022-12-03T23:32:47.947Z,-1.41
2022-12-03T23:35:32.978Z,-1.44
2022-12-03T23:38:18.084Z,-1.44
2022-12-03T23:41:08.525Z,-1.46
2022-12-03T23:43:54.047Z,-1.46
2022-12-03T23:46:38.909Z,-1.47
2022-12-03T23:49:23.479Z,-1.48
2022-12-03T23:52:08.713Z,-1.48
2022-12-03T23:54:53.486Z,-1.48
2022-12-03T23:57:38.447Z,-1.50
